sensor_id;sensor_type;location;lat;lon;timestamp;P1;durP1;ratioP1;P2;durP2;ratioP2
73487;SDS011;61721;42.206;25.320;2022-12-18T00:02:13;33.47;;;14.55;;
73487;SDS011;61721;42.206;25.320;2022-12-18T00:04:40;27.98;;;14.65;;
73487;SDS011;61721;42.206;25.320;2022-12-18T00:07:07;33.13;;;15.23;;
73487;SDS011;61721;42.206;25.320;2022-12-18T00:09:35;31.25;;;15.93;;
73487;SDS011;61721;42.206;25.320;2022-12-18T00:12:02;32.33;;;15.32;;
73487;SDS011;61721;42.206;25.320;2022-12-18T00:14:30;28.90;;;15.63;;
73487;SDS011;61721;42.206;25.320;2022-12-18T00:16:57;32.10;;;16.10;;
73487;SDS011;61721;42.206;25.320;2022-12-18T00:19:27;30.90;;;14.73;;
73487;SDS011;61721;42.206;25.320;2022-12-18T00:21:54;28.65;;;14.55;;
73487;SDS011;61721;42.206;25.320;2022-12-18T00:24:23;26.85;;;13.20;;
73487;SDS011;61721;42.206;25.320;2022-12-18T00:26:51;23.15;;;13.20;;
73487;SDS011;61721;42.206;25.320;2022-12-18T00:29:18;26.27;;;13.32;;
73487;SDS011;61721;42.206;25.320;2022-12-18T00:31:45;21.65;;;12.48;;
73487;SDS011;61721;42.206;25.320;2022-12-18T00:34:12;21.42;;;12.65;;
73487;SDS011;61721;42.206;25.320;2022-12-18T00:36:41;23.33;;;12.55;;
73487;SDS011;61721;42.206;25.320;2022-12-18T00:39:09;25.15;;;12.77;;
73487;SDS011;61721;42.206;25.320;2022-12-18T00:41:37;25.48;;;13.98;;
73487;SDS011;61721;42.206;25.320;2022-12-18T00:44:22;24.60;;;13.93;;
73487;SDS011;61721;42.206;25.320;2022-12-18T00:46:49;27.52;;;13.43;;
73487;SDS011;61721;42.206;25.320;2022-12-18T00:49:16;25.27;;;13.98;;
73487;SDS011;61721;42.206;25.320;2022-12-18T00:51:46;24.58;;;12.82;;
73487;SDS011;61721;42.206;25.320;2022-12-18T00:54:14;26.10;;;14.20;;
73487;SDS011;61721;42.206;25.320;2022-12-18T00:56:41;25.95;;;14.73;;
73487;SDS011;61721;42.206;25.320;2022-12-18T00:59:08;28.55;;;15.43;;
73487;SDS011;61721;42.206;25.320;2022-12-18T01:01:35;29.02;;;15.45;;
73487;SDS011;61721;42.206;25.320;2022-12-18T01:04:03;34.67;;;16.80;;
73487;SDS011;61721;42.206;25.320;2022-12-18T01:06:30;33.45;;;16.42;;
73487;SDS011;61721;42.206;25.320;2022-12-18T01:08:59;34.38;;;16.27;;
73487;SDS011;61721;42.206;25.320;2022-12-18T01:11:26;32.38;;;16.02;;
73487;SDS011;61721;42.206;25.320;2022-12-18T01:13:53;30.40;;;15.63;;
73487;SDS011;61721;42.206;25.320;2022-12-18T01:16:21;30.20;;;16.13;;
73487;SDS011;61721;42.206;25.320;2022-12-18T01:18:51;30.23;;;15.63;;
73487;SDS011;61721;42.206;25.320;2022-12-18T01:21:19;29.50;;;15.02;;
73487;SDS011;61721;42.206;25.320;2022-12-18T01:23:50;32.25;;;15.95;;
73487;SDS011;61721;42.206;25.320;2022-12-18T01:26:20;28.20;;;15.20;;
73487;SDS011;61721;42.206;25.320;2022-12-18T01:28:48;30.08;;;15.52;;
73487;SDS011;61721;42.206;25.320;2022-12-18T01:31:17;36.78;;;17.58;;
73487;SDS011;61721;42.206;25.320;2022-12-18T01:33:45;32.17;;;16.73;;
73487;SDS011;61721;42.206;25.320;2022-12-18T01:36:16;29.48;;;16.10;;
73487;SDS011;61721;42.206;25.320;2022-12-18T01:38:45;29.17;;;16.60;;
73487;SDS011;61721;42.206;25.320;2022-12-18T01:41:13;32.30;;;17.15;;
73487;SDS011;61721;42.206;25.320;2022-12-18T01:43:47;37.17;;;18.10;;
73487;SDS011;61721;42.206;25.320;2022-12-18T01:46:16;38.25;;;18.55;;
73487;SDS011;61721;42.206;25.320;2022-12-18T01:48:45;33.30;;;16.70;;
73487;SDS011;61721;42.206;25.320;2022-12-18T01:51:15;30.88;;;15.88;;
73487;SDS011;61721;42.206;25.320;2022-12-18T01:53:43;27.10;;;15.95;;
73487;SDS011;61721;42.206;25.320;2022-12-18T01:56:13;28.50;;;13.88;;
73487;SDS011;61721;42.206;25.320;2022-12-18T01:58:44;29.55;;;14.70;;
73487;SDS011;61721;42.206;25.320;2022-12-18T02:01:19;27.67;;;15.27;;
73487;SDS011;61721;42.206;25.320;2022-12-18T02:03:49;26.02;;;14.15;;
73487;SDS011;61721;42.206;25.320;2022-12-18T02:06:18;27.55;;;14.38;;
73487;SDS011;61721;42.206;25.320;2022-12-18T02:08:53;27.25;;;14.48;;
73487;SDS011;61721;42.206;25.320;2022-12-18T02:11:32;27.33;;;15.20;;
73487;SDS011;61721;42.206;25.320;2022-12-18T02:14:14;26.67;;;14.63;;
73487;SDS011;61721;42.206;25.320;2022-12-18T02:16:51;26.55;;;14.52;;
73487;SDS011;61721;42.206;25.320;2022-12-18T02:19:36;25.73;;;14.02;;
73487;SDS011;61721;42.206;25.320;2022-12-18T02:22:13;26.95;;;14.43;;
73487;SDS011;61721;42.206;25.320;2022-12-18T02:24:54;25.08;;;13.80;;
73487;SDS011;61721;42.206;25.320;2022-12-18T02:27:40;26.48;;;13.57;;
73487;SDS011;61721;42.206;25.320;2022-12-18T02:30:11;28.67;;;14.80;;
73487;SDS011;61721;42.206;25.320;2022-12-18T02:32:40;30.25;;;15.13;;
73487;SDS011;61721;42.206;25.320;2022-12-18T02:35:11;30.45;;;15.85;;
73487;SDS011;61721;42.206;25.320;2022-12-18T02:37:40;69.60;;;31.75;;
73487;SDS011;61721;42.206;25.320;2022-12-18T02:40:10;44.42;;;22.70;;
73487;SDS011;61721;42.206;25.320;2022-12-18T02:42:40;50.55;;;25.00;;
73487;SDS011;61721;42.206;25.320;2022-12-18T02:45:08;71.32;;;31.10;;
73487;SDS011;61721;42.206;25.320;2022-12-18T02:47:36;40.13;;;20.55;;
73487;SDS011;61721;42.206;25.320;2022-12-18T02:50:08;27.67;;;15.00;;
73487;SDS011;61721;42.206;25.320;2022-12-18T02:52:43;25.33;;;13.43;;
73487;SDS011;61721;42.206;25.320;2022-12-18T02:55:25;26.33;;;14.90;;
73487;SDS011;61721;42.206;25.320;2022-12-18T02:58:05;24.35;;;13.70;;
73487;SDS011;61721;42.206;25.320;2022-12-18T03:00:37;27.10;;;13.82;;
73487;SDS011;61721;42.206;25.320;2022-12-18T03:03:10;23.63;;;13.30;;
73487;SDS011;61721;42.206;25.320;2022-12-18T03:05:48;25.92;;;12.82;;
73487;SDS011;61721;42.206;25.320;2022-12-18T03:11:01;23.85;;;13.30;;
73487;SDS011;61721;42.206;25.320;2022-12-18T03:13:33;26.98;;;14.27;;
73487;SDS011;61721;42.206;25.320;2022-12-18T03:16:04;31.35;;;16.85;;
73487;SDS011;61721;42.206;25.320;2022-12-18T03:18:35;34.45;;;16.98;;
73487;SDS011;61721;42.206;25.320;2022-12-18T03:21:05;39.83;;;17.95;;
73487;SDS011;61721;42.206;25.320;2022-12-18T03:23:36;28.25;;;16.80;;
73487;SDS011;61721;42.206;25.320;2022-12-18T03:26:09;28.30;;;14.88;;
73487;SDS011;61721;42.206;25.320;2022-12-18T03:28:42;27.83;;;14.55;;
73487;SDS011;61721;42.206;25.320;2022-12-18T03:31:12;23.52;;;13.48;;
73487;SDS011;61721;42.206;25.320;2022-12-18T03:33:41;23.83;;;13.60;;
73487;SDS011;61721;42.206;25.320;2022-12-18T03:36:13;26.52;;;13.85;;
73487;SDS011;61721;42.206;25.320;2022-12-18T03:38:41;22.92;;;12.73;;
73487;SDS011;61721;42.206;25.320;2022-12-18T03:41:10;25.23;;;13.45;;
73487;SDS011;61721;42.206;25.320;2022-12-18T03:43:45;25.55;;;14.25;;
73487;SDS011;61721;42.206;25.320;2022-12-18T03:46:21;25.77;;;13.73;;
73487;SDS011;61721;42.206;25.320;2022-12-18T03:48:56;27.50;;;14.32;;
73487;SDS011;61721;42.206;25.320;2022-12-18T03:51:30;32.22;;;15.20;;
73487;SDS011;61721;42.206;25.320;2022-12-18T03:54:04;27.75;;;15.38;;
73487;SDS011;61721;42.206;25.320;2022-12-18T03:56:36;25.50;;;13.32;;
73487;SDS011;61721;42.206;25.320;2022-12-18T03:59:08;23.90;;;12.90;;
73487;SDS011;61721;42.206;25.320;2022-12-18T04:01:40;27.08;;;14.15;;
73487;SDS011;61721;42.206;25.320;2022-12-18T04:04:11;24.23;;;13.60;;
73487;SDS011;61721;42.206;25.320;2022-12-18T04:06:40;25.63;;;13.45;;
73487;SDS011;61721;42.206;25.320;2022-12-18T04:09:09;27.77;;;13.75;;
73487;SDS011;61721;42.206;25.320;2022-12-18T04:11:37;23.98;;;13.07;;
73487;SDS011;61721;42.206;25.320;2022-12-18T04:14:04;23.23;;;13.95;;
73487;SDS011;61721;42.206;25.320;2022-12-18T04:16:33;26.83;;;12.88;;
73487;SDS011;61721;42.206;25.320;2022-12-18T04:19:00;24.50;;;13.05;;
73487;SDS011;61721;42.206;25.320;2022-12-18T04:21:27;24.77;;;13.25;;
73487;SDS011;61721;42.206;25.320;2022-12-18T04:23:54;24.88;;;13.18;;
73487;SDS011;61721;42.206;25.320;2022-12-18T04:26:21;24.67;;;13.38;;
73487;SDS011;61721;42.206;25.320;2022-12-18T04:28:48;23.38;;;12.38;;
73487;SDS011;61721;42.206;25.320;2022-12-18T04:31:16;21.48;;;12.07;;
73487;SDS011;61721;42.206;25.320;2022-12-18T04:33:44;22.52;;;12.23;;
73487;SDS011;61721;42.206;25.320;2022-12-18T04:36:11;23.13;;;13.30;;
73487;SDS011;61721;42.206;25.320;2022-12-18T04:38:39;23.98;;;13.15;;
73487;SDS011;61721;42.206;25.320;2022-12-18T04:41:06;27.17;;;13.80;;
73487;SDS011;61721;42.206;25.320;2022-12-18T04:43:33;27.92;;;13.93;;
73487;SDS011;61721;42.206;25.320;2022-12-18T04:46:02;26.65;;;12.85;;
73487;SDS011;61721;42.206;25.320;2022-12-18T04:48:30;22.67;;;13.35;;
73487;SDS011;61721;42.206;25.320;2022-12-18T04:50:59;22.77;;;13.52;;
73487;SDS011;61721;42.206;25.320;2022-12-18T04:53:26;22.45;;;13.20;;
73487;SDS011;61721;42.206;25.320;2022-12-18T04:56:02;28.02;;;14.95;;
73487;SDS011;61721;42.206;25.320;2022-12-18T04:58:30;31.77;;;15.18;;
73487;SDS011;61721;42.206;25.320;2022-12-18T05:00:57;26.98;;;15.25;;
73487;SDS011;61721;42.206;25.320;2022-12-18T05:03:24;26.00;;;14.65;;
73487;SDS011;61721;42.206;25.320;2022-12-18T05:05:51;25.10;;;13.27;;
73487;SDS011;61721;42.206;25.320;2022-12-18T05:08:20;26.98;;;14.20;;
73487;SDS011;61721;42.206;25.320;2022-12-18T05:10:47;26.98;;;14.35;;
73487;SDS011;61721;42.206;25.320;2022-12-18T05:13:14;26.38;;;13.55;;
73487;SDS011;61721;42.206;25.320;2022-12-18T05:15:42;31.17;;;14.85;;
73487;SDS011;61721;42.206;25.320;2022-12-18T05:18:09;29.05;;;15.15;;
73487;SDS011;61721;42.206;25.320;2022-12-18T05:20:36;31.48;;;16.88;;
73487;SDS011;61721;42.206;25.320;2022-12-18T05:23:03;29.13;;;17.35;;
73487;SDS011;61721;42.206;25.320;2022-12-18T05:25:32;31.70;;;19.00;;
73487;SDS011;61721;42.206;25.320;2022-12-18T05:27:59;30.75;;;17.20;;
73487;SDS011;61721;42.206;25.320;2022-12-18T05:30:26;29.30;;;16.20;;
73487;SDS011;61721;42.206;25.320;2022-12-18T05:32:53;26.88;;;15.02;;
73487;SDS011;61721;42.206;25.320;2022-12-18T05:35:21;25.98;;;14.13;;
73487;SDS011;61721;42.206;25.320;2022-12-18T05:37:48;26.80;;;15.50;;
73487;SDS011;61721;42.206;25.320;2022-12-18T05:40:15;26.85;;;15.10;;
73487;SDS011;61721;42.206;25.320;2022-12-18T05:42:44;28.92;;;15.52;;
73487;SDS011;61721;42.206;25.320;2022-12-18T05:45:11;26.52;;;14.85;;
73487;SDS011;61721;42.206;25.320;2022-12-18T05:47:38;28.50;;;15.27;;
73487;SDS011;61721;42.206;25.320;2022-12-18T05:50:06;27.17;;;15.18;;
73487;SDS011;61721;42.206;25.320;2022-12-18T05:52:34;30.52;;;14.98;;
73487;SDS011;61721;42.206;25.320;2022-12-18T05:55:01;31.98;;;19.67;;
73487;SDS011;61721;42.206;25.320;2022-12-18T05:57:28;38.42;;;22.60;;
73487;SDS011;61721;42.206;25.320;2022-12-18T05:59:57;33.90;;;19.88;;
73487;SDS011;61721;42.206;25.320;2022-12-18T06:02:24;35.25;;;21.05;;
73487;SDS011;61721;42.206;25.320;2022-12-18T06:04:51;29.45;;;17.25;;
73487;SDS011;61721;42.206;25.320;2022-12-18T06:07:18;30.05;;;17.15;;
73487;SDS011;61721;42.206;25.320;2022-12-18T06:09:45;34.55;;;19.70;;
73487;SDS011;61721;42.206;25.320;2022-12-18T06:12:12;33.90;;;20.75;;
73487;SDS011;61721;42.206;25.320;2022-12-18T06:14:40;33.78;;;20.48;;
73487;SDS011;61721;42.206;25.320;2022-12-18T06:17:08;29.25;;;18.10;;
73487;SDS011;61721;42.206;25.320;2022-12-18T06:19:35;27.23;;;15.93;;
73487;SDS011;61721;42.206;25.320;2022-12-18T06:22:04;30.38;;;17.15;;
73487;SDS011;61721;42.206;25.320;2022-12-18T06:24:31;37.05;;;18.80;;
73487;SDS011;61721;42.206;25.320;2022-12-18T06:26:58;29.88;;;17.80;;
73487;SDS011;61721;42.206;25.320;2022-12-18T06:29:25;30.27;;;16.90;;
73487;SDS011;61721;42.206;25.320;2022-12-18T06:31:52;30.00;;;18.20;;
73487;SDS011;61721;42.206;25.320;2022-12-18T06:34:22;27.17;;;16.30;;
73487;SDS011;61721;42.206;25.320;2022-12-18T06:36:49;24.85;;;13.85;;
73487;SDS011;61721;42.206;25.320;2022-12-18T06:39:16;21.33;;;12.57;;
73487;SDS011;61721;42.206;25.320;2022-12-18T06:41:44;19.20;;;11.90;;
73487;SDS011;61721;42.206;25.320;2022-12-18T06:44:11;25.58;;;13.73;;
73487;SDS011;61721;42.206;25.320;2022-12-18T06:46:38;20.60;;;12.48;;
73487;SDS011;61721;42.206;25.320;2022-12-18T06:49:06;20.38;;;10.23;;
73487;SDS011;61721;42.206;25.320;2022-12-18T06:51:35;13.98;;;8.00;;
73487;SDS011;61721;42.206;25.320;2022-12-18T06:54:03;14.40;;;8.20;;
73487;SDS011;61721;42.206;25.320;2022-12-18T06:56:30;15.80;;;9.10;;
73487;SDS011;61721;42.206;25.320;2022-12-18T06:58:58;13.18;;;7.57;;
73487;SDS011;61721;42.206;25.320;2022-12-18T07:01:27;12.30;;;7.10;;
73487;SDS011;61721;42.206;25.320;2022-12-18T07:03:56;12.10;;;7.29;;
73487;SDS011;61721;42.206;25.320;2022-12-18T07:06:25;12.00;;;6.80;;
73487;SDS011;61721;42.206;25.320;2022-12-18T07:09:00;9.25;;;5.75;;
73487;SDS011;61721;42.206;25.320;2022-12-18T07:11:31;8.82;;;5.45;;
73487;SDS011;61721;42.206;25.320;2022-12-18T07:13:59;9.38;;;5.50;;
73487;SDS011;61721;42.206;25.320;2022-12-18T07:16:27;8.93;;;6.03;;
73487;SDS011;61721;42.206;25.320;2022-12-18T07:18:57;9.68;;;6.50;;
73487;SDS011;61721;42.206;25.320;2022-12-18T07:21:25;8.68;;;5.20;;
73487;SDS011;61721;42.206;25.320;2022-12-18T07:23:52;10.75;;;6.20;;
73487;SDS011;61721;42.206;25.320;2022-12-18T07:26:21;10.13;;;6.07;;
73487;SDS011;61721;42.206;25.320;2022-12-18T07:28:50;11.07;;;5.85;;
73487;SDS011;61721;42.206;25.320;2022-12-18T07:31:21;12.38;;;6.93;;
73487;SDS011;61721;42.206;25.320;2022-12-18T07:33:48;10.95;;;6.45;;
73487;SDS011;61721;42.206;25.320;2022-12-18T07:36:17;12.00;;;6.18;;
73487;SDS011;61721;42.206;25.320;2022-12-18T07:38:47;11.38;;;6.20;;
73487;SDS011;61721;42.206;25.320;2022-12-18T07:43:45;12.75;;;7.20;;
73487;SDS011;61721;42.206;25.320;2022-12-18T07:46:14;30.80;;;14.35;;
73487;SDS011;61721;42.206;25.320;2022-12-18T07:48:43;10.15;;;6.00;;
73487;SDS011;61721;42.206;25.320;2022-12-18T07:51:11;21.35;;;9.52;;
73487;SDS011;61721;42.206;25.320;2022-12-18T07:53:52;18.58;;;11.18;;
73487;SDS011;61721;42.206;25.320;2022-12-18T07:56:19;22.88;;;14.93;;
73487;SDS011;61721;42.206;25.320;2022-12-18T08:01:23;13.82;;;7.47;;
73487;SDS011;61721;42.206;25.320;2022-12-18T08:08:54;33.08;;;15.98;;
73487;SDS011;61721;42.206;25.320;2022-12-18T08:11:23;26.92;;;12.50;;
73487;SDS011;61721;42.206;25.320;2022-12-18T08:13:51;15.20;;;8.90;;
73487;SDS011;61721;42.206;25.320;2022-12-18T08:16:21;18.73;;;10.13;;
73487;SDS011;61721;42.206;25.320;2022-12-18T08:18:48;16.13;;;9.32;;
73487;SDS011;61721;42.206;25.320;2022-12-18T08:21:16;8.98;;;5.30;;
73487;SDS011;61721;42.206;25.320;2022-12-18T08:23:47;10.07;;;6.05;;
73487;SDS011;61721;42.206;25.320;2022-12-18T08:26:15;12.68;;;6.47;;
73487;SDS011;61721;42.206;25.320;2022-12-18T08:28:42;13.20;;;7.25;;
73487;SDS011;61721;42.206;25.320;2022-12-18T08:31:11;13.75;;;7.05;;
73487;SDS011;61721;42.206;25.320;2022-12-18T08:33:38;10.75;;;5.95;;
73487;SDS011;61721;42.206;25.320;2022-12-18T08:36:08;11.57;;;6.40;;
73487;SDS011;61721;42.206;25.320;2022-12-18T08:38:36;11.77;;;6.47;;
73487;SDS011;61721;42.206;25.320;2022-12-18T08:41:04;10.95;;;6.15;;
73487;SDS011;61721;42.206;25.320;2022-12-18T08:43:32;9.20;;;5.80;;
73487;SDS011;61721;42.206;25.320;2022-12-18T08:46:19;9.00;;;4.45;;
73487;SDS011;61721;42.206;25.320;2022-12-18T08:48:49;10.40;;;5.72;;
73487;SDS011;61721;42.206;25.320;2022-12-18T08:51:17;12.18;;;6.82;;
73487;SDS011;61721;42.206;25.320;2022-12-18T08:53:45;13.05;;;7.25;;
73487;SDS011;61721;42.206;25.320;2022-12-18T08:56:13;11.32;;;7.30;;
73487;SDS011;61721;42.206;25.320;2022-12-18T08:58:41;8.02;;;4.68;;
73487;SDS011;61721;42.206;25.320;2022-12-18T09:01:09;9.82;;;5.10;;
73487;SDS011;61721;42.206;25.320;2022-12-18T09:03:39;9.82;;;5.85;;
73487;SDS011;61721;42.206;25.320;2022-12-18T09:06:06;9.82;;;5.97;;
73487;SDS011;61721;42.206;25.320;2022-12-18T09:08:34;8.73;;;4.28;;
73487;SDS011;61721;42.206;25.320;2022-12-18T09:11:01;7.75;;;4.00;;
73487;SDS011;61721;42.206;25.320;2022-12-18T09:13:29;7.30;;;3.95;;
73487;SDS011;61721;42.206;25.320;2022-12-18T09:15:56;12.27;;;6.18;;
73487;SDS011;61721;42.206;25.320;2022-12-18T09:18:23;13.50;;;7.43;;
73487;SDS011;61721;42.206;25.320;2022-12-18T09:20:52;9.07;;;5.30;;
73487;SDS011;61721;42.206;25.320;2022-12-18T09:23:19;8.25;;;4.40;;
73487;SDS011;61721;42.206;25.320;2022-12-18T09:25:47;9.45;;;5.90;;
73487;SDS011;61721;42.206;25.320;2022-12-18T09:28:15;10.25;;;6.72;;
73487;SDS011;61721;42.206;25.320;2022-12-18T09:30:44;17.08;;;11.68;;
73487;SDS011;61721;42.206;25.320;2022-12-18T09:33:13;14.80;;;8.23;;
73487;SDS011;61721;42.206;25.320;2022-12-18T09:35:41;16.40;;;8.10;;
73487;SDS011;61721;42.206;25.320;2022-12-18T09:38:12;11.07;;;6.82;;
73487;SDS011;61721;42.206;25.320;2022-12-18T09:40:43;9.23;;;5.05;;
73487;SDS011;61721;42.206;25.320;2022-12-18T09:43:15;8.50;;;4.88;;
73487;SDS011;61721;42.206;25.320;2022-12-18T09:45:47;8.23;;;4.55;;
73487;SDS011;61721;42.206;25.320;2022-12-18T09:48:19;7.70;;;4.38;;
73487;SDS011;61721;42.206;25.320;2022-12-18T09:50:50;12.88;;;6.13;;
73487;SDS011;61721;42.206;25.320;2022-12-18T09:53:21;9.80;;;5.10;;
73487;SDS011;61721;42.206;25.320;2022-12-18T09:55:53;8.30;;;4.68;;
73487;SDS011;61721;42.206;25.320;2022-12-18T10:00:53;7.47;;;4.22;;
73487;SDS011;61721;42.206;25.320;2022-12-18T10:03:21;8.88;;;4.72;;
73487;SDS011;61721;42.206;25.320;2022-12-18T10:05:51;11.65;;;6.22;;
73487;SDS011;61721;42.206;25.320;2022-12-18T10:08:30;19.05;;;8.35;;
73487;SDS011;61721;42.206;25.320;2022-12-18T10:11:20;21.05;;;11.30;;
73487;SDS011;61721;42.206;25.320;2022-12-18T10:13:56;19.92;;;9.63;;
73487;SDS011;61721;42.206;25.320;2022-12-18T10:16:29;19.70;;;9.98;;
73487;SDS011;61721;42.206;25.320;2022-12-18T10:19:11;23.52;;;11.63;;
73487;SDS011;61721;42.206;25.320;2022-12-18T10:21:49;25.73;;;11.15;;
73487;SDS011;61721;42.206;25.320;2022-12-18T10:24:26;13.75;;;6.97;;
73487;SDS011;61721;42.206;25.320;2022-12-18T10:27:04;14.02;;;8.48;;
73487;SDS011;61721;42.206;25.320;2022-12-18T10:29:41;15.02;;;8.52;;
73487;SDS011;61721;42.206;25.320;2022-12-18T10:32:13;17.85;;;8.60;;
73487;SDS011;61721;42.206;25.320;2022-12-18T10:34:45;16.13;;;8.60;;
73487;SDS011;61721;42.206;25.320;2022-12-18T10:37:14;15.80;;;8.45;;
73487;SDS011;61721;42.206;25.320;2022-12-18T10:39:46;15.65;;;7.90;;
73487;SDS011;61721;42.206;25.320;2022-12-18T10:42:30;13.02;;;6.95;;
73487;SDS011;61721;42.206;25.320;2022-12-18T10:45:00;10.88;;;6.95;;
73487;SDS011;61721;42.206;25.320;2022-12-18T10:47:29;16.80;;;9.77;;
73487;SDS011;61721;42.206;25.320;2022-12-18T10:49:57;19.30;;;10.80;;
73487;SDS011;61721;42.206;25.320;2022-12-18T10:52:24;17.95;;;9.73;;
73487;SDS011;61721;42.206;25.320;2022-12-18T10:54:54;26.60;;;11.60;;
73487;SDS011;61721;42.206;25.320;2022-12-18T10:57:31;20.25;;;10.93;;
73487;SDS011;61721;42.206;25.320;2022-12-18T11:00:19;21.80;;;12.20;;
73487;SDS011;61721;42.206;25.320;2022-12-18T11:02:48;14.23;;;7.80;;
73487;SDS011;61721;42.206;25.320;2022-12-18T11:05:29;17.58;;;9.00;;
73487;SDS011;61721;42.206;25.320;2022-12-18T11:07:57;18.25;;;10.15;;
73487;SDS011;61721;42.206;25.320;2022-12-18T11:10:29;22.80;;;10.77;;
73487;SDS011;61721;42.206;25.320;2022-12-18T11:13:09;31.40;;;13.90;;
73487;SDS011;61721;42.206;25.320;2022-12-18T11:15:39;38.13;;;18.50;;
73487;SDS011;61721;42.206;25.320;2022-12-18T11:18:14;17.55;;;9.82;;
73487;SDS011;61721;42.206;25.320;2022-12-18T11:20:52;40.72;;;18.38;;
73487;SDS011;61721;42.206;25.320;2022-12-18T11:23:21;37.55;;;15.77;;
73487;SDS011;61721;42.206;25.320;2022-12-18T11:26:00;20.25;;;11.80;;
73487;SDS011;61721;42.206;25.320;2022-12-18T11:28:34;24.85;;;13.57;;
73487;SDS011;61721;42.206;25.320;2022-12-18T11:33:58;11.90;;;6.72;;
73487;SDS011;61721;42.206;25.320;2022-12-18T11:36:31;12.48;;;6.75;;
73487;SDS011;61721;42.206;25.320;2022-12-18T11:39:05;11.90;;;6.25;;
73487;SDS011;61721;42.206;25.320;2022-12-18T11:41:41;21.15;;;9.85;;
73487;SDS011;61721;42.206;25.320;2022-12-18T11:44:34;11.77;;;6.15;;
73487;SDS011;61721;42.206;25.320;2022-12-18T11:47:05;16.23;;;8.75;;
73487;SDS011;61721;42.206;25.320;2022-12-18T11:49:40;12.02;;;6.85;;
73487;SDS011;61721;42.206;25.320;2022-12-18T11:52:09;9.85;;;5.80;;
73487;SDS011;61721;42.206;25.320;2022-12-18T11:54:42;9.95;;;4.47;;
73487;SDS011;61721;42.206;25.320;2022-12-18T11:57:13;11.18;;;4.50;;
73487;SDS011;61721;42.206;25.320;2022-12-18T11:59:49;9.05;;;5.22;;
73487;SDS011;61721;42.206;25.320;2022-12-18T12:02:25;10.13;;;4.95;;
73487;SDS011;61721;42.206;25.320;2022-12-18T12:05:16;11.75;;;5.75;;
73487;SDS011;61721;42.206;25.320;2022-12-18T12:07:53;13.27;;;7.07;;
73487;SDS011;61721;42.206;25.320;2022-12-18T12:10:31;10.85;;;5.30;;
73487;SDS011;61721;42.206;25.320;2022-12-18T12:13:18;13.75;;;6.85;;
73487;SDS011;61721;42.206;25.320;2022-12-18T12:16:00;14.45;;;8.30;;
73487;SDS011;61721;42.206;25.320;2022-12-18T12:18:39;22.70;;;11.25;;
73487;SDS011;61721;42.206;25.320;2022-12-18T12:21:17;20.27;;;9.85;;
73487;SDS011;61721;42.206;25.320;2022-12-18T12:23:50;19.08;;;10.65;;
73487;SDS011;61721;42.206;25.320;2022-12-18T12:26:24;25.33;;;13.38;;
73487;SDS011;61721;42.206;25.320;2022-12-18T12:31:39;21.88;;;10.68;;
73487;SDS011;61721;42.206;25.320;2022-12-18T12:34:26;13.93;;;7.82;;
73487;SDS011;61721;42.206;25.320;2022-12-18T12:37:03;21.75;;;11.45;;
73487;SDS011;61721;42.206;25.320;2022-12-18T12:39:48;10.77;;;5.97;;
73487;SDS011;61721;42.206;25.320;2022-12-18T12:42:30;13.60;;;7.15;;
73487;SDS011;61721;42.206;25.320;2022-12-18T12:45:22;15.32;;;7.90;;
73487;SDS011;61721;42.206;25.320;2022-12-18T12:47:59;11.93;;;6.38;;
73487;SDS011;61721;42.206;25.320;2022-12-18T12:50:28;9.68;;;6.03;;
73487;SDS011;61721;42.206;25.320;2022-12-18T12:53:00;10.00;;;6.38;;
73487;SDS011;61721;42.206;25.320;2022-12-18T12:55:32;16.95;;;7.65;;
73487;SDS011;61721;42.206;25.320;2022-12-18T12:58:02;9.38;;;5.50;;
73487;SDS011;61721;42.206;25.320;2022-12-18T13:00:41;21.77;;;9.45;;
73487;SDS011;61721;42.206;25.320;2022-12-18T13:03:23;11.95;;;6.70;;
73487;SDS011;61721;42.206;25.320;2022-12-18T13:06:02;18.58;;;13.38;;
73487;SDS011;61721;42.206;25.320;2022-12-18T13:08:51;14.13;;;10.70;;
73487;SDS011;61721;42.206;25.320;2022-12-18T13:11:31;9.15;;;5.88;;
73487;SDS011;61721;42.206;25.320;2022-12-18T13:14:20;13.48;;;5.93;;
73487;SDS011;61721;42.206;25.320;2022-12-18T13:19:22;8.65;;;5.10;;
73487;SDS011;61721;42.206;25.320;2022-12-18T13:21:53;10.45;;;5.28;;
73487;SDS011;61721;42.206;25.320;2022-12-18T13:24:25;11.27;;;6.20;;
73487;SDS011;61721;42.206;25.320;2022-12-18T13:26:55;16.20;;;9.07;;
73487;SDS011;61721;42.206;25.320;2022-12-18T13:32:21;11.50;;;7.55;;
73487;SDS011;61721;42.206;25.320;2022-12-18T13:35:03;12.48;;;6.30;;
73487;SDS011;61721;42.206;25.320;2022-12-18T13:38:18;13.68;;;7.13;;
73487;SDS011;61721;42.206;25.320;2022-12-18T13:40:55;11.90;;;6.93;;
73487;SDS011;61721;42.206;25.320;2022-12-18T13:43:24;15.93;;;7.07;;
73487;SDS011;61721;42.206;25.320;2022-12-18T13:46:05;12.05;;;6.82;;
73487;SDS011;61721;42.206;25.320;2022-12-18T13:48:50;11.00;;;6.53;;
73487;SDS011;61721;42.206;25.320;2022-12-18T13:51:21;11.00;;;7.03;;
73487;SDS011;61721;42.206;25.320;2022-12-18T13:53:49;15.23;;;6.93;;
73487;SDS011;61721;42.206;25.320;2022-12-18T13:56:22;13.73;;;7.57;;
73487;SDS011;61721;42.206;25.320;2022-12-18T13:59:03;11.68;;;7.00;;
73487;SDS011;61721;42.206;25.320;2022-12-18T14:01:41;10.52;;;6.15;;
73487;SDS011;61721;42.206;25.320;2022-12-18T14:04:11;15.20;;;8.10;;
73487;SDS011;61721;42.206;25.320;2022-12-18T14:06:46;9.82;;;6.07;;
73487;SDS011;61721;42.206;25.320;2022-12-18T14:09:15;15.27;;;6.28;;
73487;SDS011;61721;42.206;25.320;2022-12-18T14:11:47;11.43;;;5.93;;
73487;SDS011;61721;42.206;25.320;2022-12-18T14:14:15;12.23;;;7.43;;
73487;SDS011;61721;42.206;25.320;2022-12-18T14:16:44;11.82;;;6.97;;
73487;SDS011;61721;42.206;25.320;2022-12-18T14:19:15;10.50;;;6.65;;
73487;SDS011;61721;42.206;25.320;2022-12-18T14:21:47;10.27;;;5.50;;
73487;SDS011;61721;42.206;25.320;2022-12-18T14:24:17;11.02;;;5.95;;
73487;SDS011;61721;42.206;25.320;2022-12-18T14:29:18;13.23;;;6.05;;
73487;SDS011;61721;42.206;25.320;2022-12-18T14:32:05;11.27;;;6.55;;
73487;SDS011;61721;42.206;25.320;2022-12-18T14:34:36;13.63;;;7.93;;
73487;SDS011;61721;42.206;25.320;2022-12-18T14:37:03;23.33;;;13.13;;
73487;SDS011;61721;42.206;25.320;2022-12-18T14:39:30;12.82;;;7.25;;
73487;SDS011;61721;42.206;25.320;2022-12-18T14:41:58;13.70;;;6.90;;
73487;SDS011;61721;42.206;25.320;2022-12-18T14:44:25;12.82;;;6.70;;
73487;SDS011;61721;42.206;25.320;2022-12-18T14:46:52;14.00;;;7.40;;
73487;SDS011;61721;42.206;25.320;2022-12-18T14:49:21;19.52;;;8.05;;
73487;SDS011;61721;42.206;25.320;2022-12-18T14:51:53;15.55;;;8.27;;
73487;SDS011;61721;42.206;25.320;2022-12-18T14:56:51;14.20;;;7.65;;
73487;SDS011;61721;42.206;25.320;2022-12-18T14:59:24;10.27;;;5.90;;
73487;SDS011;61721;42.206;25.320;2022-12-18T15:01:56;12.10;;;6.63;;
73487;SDS011;61721;42.206;25.320;2022-12-18T15:04:27;15.70;;;9.57;;
73487;SDS011;61721;42.206;25.320;2022-12-18T15:07:05;22.77;;;11.85;;
73487;SDS011;61721;42.206;25.320;2022-12-18T15:09:38;37.97;;;21.88;;
73487;SDS011;61721;42.206;25.320;2022-12-18T15:12:16;16.08;;;10.18;;